Time;durP1;ratioP1;P1;durP2;ratioP2;P2;SDS_P1;SDS_P2;PMS_P1;PMS_P2;Temp;Humidity;BMP_temperature;BMP_pressure;BME280_temperature;BME280_humidity;BME280_pressure;Samples;Min_cycle;Max_cycle;Signal;HPM_P1;HPM_P2
2022/05/06 00:00:18;;;;;;;;;;;;;;;22.18;37.18;101764.06;2083158;28;819;-59
2022/05/06 00:01:18;;;;;;;;;;;;;;;22.16;37.25;101750.59;2083077;28;824;-59
2022/05/06 00:02:19;;;;;;;;;;;;;;;22.15;36.75;101750.66;2083182;28;977;-59
2022/05/06 00:03:19;;;;;;;;;;;;;;;22.15;36.84;101750.66;2083036;28;859;-60
2022/05/06 00:04:19;;;;;;;;;;;;;;;22.13;36.58;101744.41;2082997;28;982;-59
2022/05/06 00:05:19;;;;;;;;;;;;;;;22.13;36.39;101747.09;2083055;28;776;-59
2022/05/06 00:06:20;;;;;;;;;;;;;;;22.12;37.23;101742.63;2083032;28;1975;-59
2022/05/06 00:07:20;;;;;;;;;;;;;;;22.12;37.09;101742.63;2084604;28;732;-60
2022/05/06 00:08:20;;;;;;;;;;;;;;;22.11;36.75;101741.72;2083481;28;1020;-60
2022/05/06 00:09:20;;;;;;;;;;;;;;;22.10;37.11;101742.66;2083017;28;788;-59
2022/05/06 00:10:20;;;;;;;;;;;;;;;22.10;36.99;101747.19;2083177;28;632;-59
2022/05/06 00:11:21;;;;;;;;;;;;;;;22.09;36.73;101746.28;2082952;28;795;-59
2022/05/06 00:12:21;;;;;;;;;;;;;;;22.08;37.48;101740.94;2082969;28;862;-60
2022/05/06 00:13:21;;;;;;;;;;;;;;;22.08;36.62;101749.91;2082926;28;1962;-59
2022/05/06 00:14:21;;;;;;;;;;;;;;;22.07;36.67;101745.47;2082988;28;854;-59
2022/05/06 00:15:22;;;;;;;;;;;;;;;22.08;36.88;101743.63;2082992;28;868;-59
2022/05/06 00:16:22;;;;;;;;;;;;;;;22.06;37.33;101741.84;2082916;28;835;-59
2022/05/06 00:17:23;;;;;;;;;;;;;;;22.08;36.97;101738.25;2083038;28;1029;-59
2022/05/06 00:18:23;;;;;;;;;;;;;;;22.09;36.91;101742.72;2082958;28;773;-59
2022/05/06 00:19:23;;;;;;;;;;;;;;;22.08;37.58;101746.34;2083129;28;702;-59
2022/05/06 00:20:23;;;;;;;;;;;;;;;22.04;36.85;101746.41;2082972;28;922;-60
2022/05/06 00:21:23;;;;;;;;;;;;;;;22.04;37.57;101746.41;2082901;28;1033;-59
2022/05/06 00:22:23;;;;;;;;;;;;;;;22.04;37.18;101746.41;2082953;28;831;-59
2022/05/06 00:23:24;;;;;;;;;;;;;;;22.04;37.04;101749.09;2082934;28;938;-59
2022/05/06 00:24:24;;;;;;;;;;;;;;;22.04;37.23;101756.31;2082419;28;886;-59
2022/05/06 00:25:24;;;;;;;;;;;;;;;22.02;36.98;101753.66;2082333;28;989;-59
2022/05/06 00:26:24;;;;;;;;;;;;;;;22.02;37.02;101755.47;2082675;28;1964;-59
2022/05/06 00:27:25;;;;;;;;;;;;;;;22.03;37.96;101755.44;2082938;28;913;-59
2022/05/06 00:28:25;;;;;;;;;;;;;;;22.02;37.73;101753.66;2082941;28;1016;-59
2022/05/06 00:29:25;;;;;;;;;;;;;;;22.02;37.93;101756.34;2082921;28;948;-60
2022/05/06 00:30:25;;;;;;;;;;;;;;;22.02;37.12;101760.88;2083009;28;858;-59
2022/05/06 00:31:26;;;;;;;;;;;;;;;22.02;37.83;101759.06;2082873;28;981;-59
2022/05/06 00:32:26;;;;;;;;;;;;;;;22.02;37.40;101758.19;2082933;28;846;-59
2022/05/06 00:33:27;;;;;;;;;;;;;;;22.01;37.47;101756.41;2082881;28;918;-60
2022/05/06 00:34:27;;;;;;;;;;;;;;;22.00;37.16;101760.03;2082926;28;984;-60
2022/05/06 00:35:27;;;;;;;;;;;;;;;22.00;37.10;101755.50;2082863;28;1020;-59
2022/05/06 00:36:27;;;;;;;;;;;;;;;22.00;37.54;101757.31;2082913;28;788;-59
2022/05/06 00:37:28;;;;;;;;;;;;;;;21.99;37.33;101767.22;2082931;28;1204;-59
2022/05/06 00:38:29;;;;;;;;;;;;;;;21.98;37.49;101757.34;2082886;28;823;-60
2022/05/06 00:39:29;;;;;;;;;;;;;;;21.99;37.20;101758.25;2082893;28;1036;-59
2022/05/06 00:40:29;;;;;;;;;;;;;;;22.00;37.95;101762.72;2082840;28;1042;-59
2022/05/06 00:41:39;;;;;;;;;;;;;;;21.99;37.84;101763.66;2082836;28;784;-59
2022/05/06 00:42:39;;;;;;;;;;;;;;;21.98;37.28;101757.34;2083044;28;1009;-59
2022/05/06 00:43:39;;;;;;;;;;;;;;;21.97;37.53;101762.81;2082839;28;986;-59
2022/05/06 00:44:40;;;;;;;;;;;;;;;21.96;37.84;101761.91;2082862;28;846;-59
2022/05/06 00:45:46;;;;;;;;;;;;;;;21.97;37.39;101760.09;2083410;28;973;-59
2022/05/06 00:46:47;;;;;;;;;;;;;;;21.97;37.57;101760.97;2083914;28;1294;-59
2022/05/06 00:47:47;;;;;;;;;;;;;;;21.96;37.65;101761.03;2083976;28;771;-59
2022/05/06 00:48:48;;;;;;;;;;;;;;;21.97;37.35;101769.06;2084621;28;845;-59
2022/05/06 00:49:48;;;;;;;;;;;;;;;21.98;37.34;101765.44;2084604;28;831;-59
2022/05/06 00:50:49;;;;;;;;;;;;;;;21.97;37.72;101766.38;2084532;28;965;-60
2022/05/06 00:51:52;;;;;;;;;;;;;;;21.97;37.61;101765.50;2084519;28;839;-59
2022/05/06 00:52:54;;;;;;;;;;;;;;;21.95;37.40;101768.22;2084538;28;996;-59
2022/05/06 00:53:55;;;;;;;;;;;;;;;21.95;37.92;101770.91;2084523;28;918;-59
2022/05/06 00:54:55;;;;;;;;;;;;;;;21.96;37.36;101772.69;2084528;28;845;-60
2022/05/06 00:55:56;;;;;;;;;;;;;;;21.96;38.29;101770.00;2084488;28;791;-60
2022/05/06 00:56:56;;;;;;;;;;;;;;;21.96;37.38;101775.38;2084466;28;882;-59
2022/05/06 00:57:57;;;;;;;;;;;;;;;21.94;37.64;101770.97;2084516;28;990;-59
2022/05/06 00:58:57;;;;;;;;;;;;;;;21.94;37.79;101776.38;2084509;28;842;-59
2022/05/06 01:00:18;;;;;;;;;;;;;;;21.94;37.97;101776.38;2083750;28;832;-59
2022/05/06 01:01:18;;;;;;;;;;;;;;;21.95;38.16;101772.75;2084081;28;965;-59
2022/05/06 01:02:20;;;;;;;;;;;;;;;21.94;38.43;101771.84;2084486;28;780;-59
2022/05/06 01:03:20;;;;;;;;;;;;;;;21.94;37.63;101779.94;2084421;28;815;-59
2022/05/06 01:04:20;;;;;;;;;;;;;;;21.94;37.94;101776.38;2084406;28;764;-59
2022/05/06 01:05:22;;;;;;;;;;;;;;;21.94;38.21;101779.94;2084390;28;863;-59
2022/05/06 01:06:23;;;;;;;;;;;;;;;21.94;38.36;101785.31;2084368;28;1910;-59
2022/05/06 01:07:23;;;;;;;;;;;;;;;21.94;38.45;101787.16;2084464;28;854;-59
2022/05/06 01:08:24;;;;;;;;;;;;;;;21.93;37.54;101786.25;2084407;28;941;-59
2022/05/06 01:09:24;;;;;;;;;;;;;;;21.92;38.53;101784.47;2084373;28;858;-59
2022/05/06 01:10:24;;;;;;;;;;;;;;;21.93;37.91;101788.94;2084400;28;914;-59
2022/05/06 01:11:25;;;;;;;;;;;;;;;21.92;38.29;101782.69;2084376;28;989;-59
2022/05/06 01:12:26;;;;;;;;;;;;;;;21.92;37.60;101788.06;2084391;28;1040;-60
2022/05/06 01:13:27;;;;;;;;;;;;;;;21.93;37.67;101786.25;2084306;28;1093;-59
2022/05/06 01:14:31;;;;;;;;;;;;;;;21.91;37.70;101789.00;2084410;28;868;-59
2022/05/06 01:15:32;;;;;;;;;;;;;;;21.91;37.62;101786.31;2084309;28;901;-59
2022/05/06 01:16:36;;;;;;;;;;;;;;;21.91;37.77;101789.00;2084412;28;878;-60
2022/05/06 01:17:36;;;;;;;;;;;;;;;21.92;38.27;101781.78;2084413;28;854;-59
2022/05/06 01:18:36;;;;;;;;;;;;;;;21.91;37.58;101785.41;2084303;28;852;-59
2022/05/06 01:19:36;;;;;;;;;;;;;;;21.91;38.42;101788.09;2084335;28;816;-59
2022/05/06 01:20:38;;;;;;;;;;;;;;;21.91;37.58;101777.31;2084339;28;772;-59
2022/05/06 01:21:41;;;;;;;;;;;;;;;21.90;37.78;101780.94;2084282;28;878;-60
2022/05/06 01:22:42;;;;;;;;;;;;;;;21.91;38.12;101780.00;2084329;28;1054;-60
2022/05/06 01:23:42;;;;;;;;;;;;;;;21.90;37.97;101783.63;2084319;28;1111;-59
2022/05/06 01:24:43;;;;;;;;;;;;;;;21.90;38.54;101784.53;2084686;28;772;-59
2022/05/06 01:25:43;;;;;;;;;;;;;;;21.90;37.71;101783.63;2086521;28;1894;-60
2022/05/06 01:26:57;;;;;;;;;;;;;;;21.90;37.58;101787.22;2085376;28;1118;-60
2022/05/06 01:28:02;;;;;;;;;;;;;;;21.91;37.81;101790.78;2084267;28;996;-59
2022/05/06 01:29:02;;;;;;;;;;;;;;;21.90;38.58;101789.03;2084331;28;863;-59
2022/05/06 01:30:04;;;;;;;;;;;;;;;21.88;37.90;101783.69;2084231;28;812;-59
2022/05/06 01:31:05;;;;;;;;;;;;;;;21.89;38.51;101787.25;2084264;28;815;-59
2022/05/06 01:32:06;;;;;;;;;;;;;;;21.88;38.07;101785.47;2084264;28;898;-59
2022/05/06 01:33:07;;;;;;;;;;;;;;;21.88;37.92;101789.06;2084274;28;1000;-59
2022/05/06 01:34:09;;;;;;;;;;;;;;;21.89;37.75;101792.63;2084255;28;804;-59
2022/05/06 01:35:11;;;;;;;;;;;;;;;21.88;37.87;101786.38;2084210;28;799;-59
2022/05/06 01:36:11;;;;;;;;;;;;;;;21.88;37.66;101785.47;2084198;28;783;-59
2022/05/06 01:37:13;;;;;;;;;;;;;;;21.89;38.49;101784.53;2084231;28;795;-59
2022/05/06 01:38:32;;;;;;;;;;;;;;;21.88;38.70;101793.56;2084189;28;878;-60
2022/05/06 01:39:36;;;;;;;;;;;;;;;21.86;37.84;101788.22;2084242;28;1037;-59
2022/05/06 01:40:42;;;;;;;;;;;;;;;21.86;38.54;101787.31;2083624;28;1076;-59
2022/05/06 01:41:43;;;;;;;;;;;;;;;21.86;37.86;101790.91;2083612;28;993;-59
2022/05/06 01:42:44;;;;;;;;;;;;;;;21.88;37.65;101793.56;2084180;28;851;-60
2022/05/06 01:43:46;;;;;;;;;;;;;;;21.87;38.20;101790.00;2084136;28;788;-60
2022/05/06 01:44:47;;;;;;;;;;;;;;;21.87;38.12;101787.31;2084152;28;767;-60
2022/05/06 01:45:48;;;;;;;;;;;;;;;21.88;38.43;101789.06;2084065;28;1918;-59
2022/05/06 01:46:48;;;;;;;;;;;;;;;21.86;37.77;101779.22;2084128;28;894;-59
2022/05/06 01:47:50;;;;;;;;;;;;;;;21.86;38.14;101787.31;2084036;28;1064;-60
2022/05/06 01:48:51;;;;;;;;;;;;;;;21.86;37.79;101785.53;2084132;28;862;-59
2022/05/06 01:49:56;;;;;;;;;;;;;;;21.86;38.06;101779.22;2084128;28;977;-59
2022/05/06 01:50:56;;;;;;;;;;;;;;;21.86;38.31;101776.53;2083425;28;898;-59
2022/05/06 01:51:57;;;;;;;;;;;;;;;21.85;38.69;101781.06;2083590;28;985;-59
2022/05/06 01:52:58;;;;;;;;;;;;;;;21.85;38.54;101781.06;2084078;28;803;-59
2022/05/06 01:53:58;;;;;;;;;;;;;;;21.85;38.52;101785.53;2083965;28;1353;-59
2022/05/06 01:54:58;;;;;;;;;;;;;;;21.84;38.24;101786.47;2084066;28;970;-59
2022/05/06 01:55:59;;;;;;;;;;;;;;;21.85;37.83;101782.84;2084017;28;863;-60
2022/05/06 01:56:59;;;;;;;;;;;;;;;21.85;37.84;101788.25;2083980;28;847;-60
2022/05/06 01:58:00;;;;;;;;;;;;;;;21.86;37.76;101787.31;2084627;28;842;-59
2022/05/06 01:59:01;;;;;;;;;;;;;;;21.85;38.18;101785.53;2086265;28;961;-60
2022/05/06 02:00:02;;;;;;;;;;;;;;;21.84;37.99;101787.38;2085128;28;800;-60
2022/05/06 02:01:02;;;;;;;;;;;;;;;21.83;38.14;101780.19;2083993;28;842;-60
2022/05/06 02:02:03;;;;;;;;;;;;;;;21.83;38.34;101774.81;2084037;28;918;-59
2022/05/06 02:03:04;;;;;;;;;;;;;;;21.83;38.11;101777.50;2083998;28;922;-59
2022/05/06 02:05:24;;;;;;;;;;;;;;;21.83;38.71;101777.50;2083971;28;634;-59
2022/05/06 02:06:25;;;;;;;;;;;;;;;21.84;37.92;101778.38;2083929;28;1949;-59
2022/05/06 02:07:25;;;;;;;;;;;;;;;21.83;38.58;101777.50;2083993;28;820;-59
2022/05/06 02:08:25;;;;;;;;;;;;;;;21.84;37.96;101775.69;2083963;28;856;-59
2022/05/06 02:09:26;;;;;;;;;;;;;;;21.84;38.02;101778.38;2083873;28;871;-60
2022/05/06 02:10:26;;;;;;;;;;;;;;;21.84;37.92;101779.28;2083920;28;839;-59
2022/05/06 02:11:26;;;;;;;;;;;;;;;21.80;38.51;101773.97;2083917;28;800;-59
2022/05/06 02:12:26;;;;;;;;;;;;;;;21.82;38.07;101778.44;2083912;28;768;-59
2022/05/06 02:13:27;;;;;;;;;;;;;;;21.82;38.32;101777.53;2084075;28;710;-60
2022/05/06 02:14:27;;;;;;;;;;;;;;;21.82;37.90;101778.44;2083965;28;875;-60
2022/05/06 02:15:28;;;;;;;;;;;;;;;21.82;37.96;101773.03;2083231;28;820;-59
2022/05/06 02:16:29;;;;;;;;;;;;;;;21.84;38.74;101775.69;2083314;28;796;-59
2022/05/06 02:17:29;;;;;;;;;;;;;;;21.83;38.21;101777.50;2084041;28;846;-60
2022/05/06 02:18:29;;;;;;;;;;;;;;;21.83;38.15;101773.91;2083864;28;949;-59
2022/05/06 02:19:29;;;;;;;;;;;;;;;21.82;37.91;101775.72;2083858;28;815;-59
2022/05/06 02:20:30;;;;;;;;;;;;;;;21.82;38.77;101770.34;2083833;28;843;-59
2022/05/06 02:21:30;;;;;;;;;;;;;;;21.82;38.58;101773.03;2083814;28;977;-60
2022/05/06 02:22:31;;;;;;;;;;;;;;;21.81;38.36;101775.75;2083845;28;823;-59
2022/05/06 02:23:31;;;;;;;;;;;;;;;21.82;38.23;101772.13;2083775;28;1016;-60
2022/05/06 02:24:31;;;;;;;;;;;;;;;21.82;38.08;101769.44;2083864;28;792;-60
2022/05/06 02:25:31;;;;;;;;;;;;;;;21.82;37.88;101770.34;2083819;28;990;-60
2022/05/06 02:26:31;;;;;;;;;;;;;;;21.82;37.97;101770.34;2083374;28;1957;-60
2022/05/06 02:27:32;;;;;;;;;;;;;;;21.83;38.14;101773.91;2083812;28;910;-60
2022/05/06 02:28:32;;;;;;;;;;;;;;;21.84;38.48;101772.97;2083937;28;697;-59
2022/05/06 02:29:32;;;;;;;;;;;;;;;21.82;38.47;101772.13;2083773;28;855;-59
2022/05/06 02:33:12;;;;;;;;;;;;;;;21.80;38.02;101772.19;2083832;28;672;-59
2022/05/06 02:34:16;;;;;;;;;;;;;;;21.80;38.25;101774.88;2083768;28;952;-59
2022/05/06 02:35:16;;;;;;;;;;;;;;;21.80;38.70;101774.88;2083681;28;883;-60
2022/05/06 02:36:17;;;;;;;;;;;;;;;21.80;38.28;101773.97;2083714;28;859;-60
2022/05/06 02:37:17;;;;;;;;;;;;;;;21.81;38.69;101773.06;2083641;28;1144;-59
2022/05/06 02:38:17;;;;;;;;;;;;;;;21.80;38.14;101768.59;2083717;28;1028;-59
2022/05/06 02:39:17;;;;;;;;;;;;;;;21.80;37.91;101776.66;2083843;28;760;-59
2022/05/06 02:40:17;;;;;;;;;;;;;;;21.80;37.93;101777.56;2083727;28;1056;-59
2022/05/06 02:41:17;;;;;;;;;;;;;;;21.80;37.93;101774.88;2083824;28;957;-59
2022/05/06 02:42:17;;;;;;;;;;;;;;;21.79;38.45;101772.19;2085306;28;989;-60
2022/05/06 02:43:18;;;;;;;;;;;;;;;21.80;38.23;101765.88;2083825;28;990;-60
2022/05/06 02:44:18;;;;;;;;;;;;;;;21.80;38.40;101776.66;2083651;28;784;-60
2022/05/06 02:45:18;;;;;;;;;;;;;;;21.80;38.07;101772.19;2083799;28;732;-59
2022/05/06 02:46:18;;;;;;;;;;;;;;;21.80;38.22;101769.47;2083641;28;1910;-59
2022/05/06 02:47:19;;;;;;;;;;;;;;;21.80;38.14;101768.59;2083635;28;827;-59
2022/05/06 02:48:19;;;;;;;;;;;;;;;21.79;38.62;101767.72;2083612;28;851;-59
2022/05/06 02:49:19;;;;;;;;;;;;;;;21.79;38.06;101773.09;2083654;28;780;-59
2022/05/06 02:50:19;;;;;;;;;;;;;;;21.79;38.23;101765.00;2083744;28;792;-59
2022/05/06 02:51:19;;;;;;;;;;;;;;;21.80;38.02;101757.78;2083617;28;985;-59
2022/05/06 02:52:20;;;;;;;;;;;;;;;21.79;38.14;101765.00;2083578;28;888;-60
2022/05/06 02:53:21;;;;;;;;;;;;;;;21.80;38.72;101765.88;2083584;28;966;-59
2022/05/06 02:54:22;;;;;;;;;;;;;;;21.79;38.01;101765.00;2083705;28;903;-59
2022/05/06 02:55:23;;;;;;;;;;;;;;;21.79;38.51;101764.09;2083606;28;816;-59
2022/05/06 02:56:24;;;;;;;;;;;;;;;21.77;38.08;101765.06;2083588;28;795;-59
2022/05/06 02:57:24;;;;;;;;;;;;;;;21.77;38.30;101767.75;2083660;28;1056;-59
2022/05/06 02:58:24;;;;;;;;;;;;;;;21.77;37.98;101767.75;2083597;28;1074;-59
2022/05/06 02:59:25;;;;;;;;;;;;;;;21.77;38.72;101770.47;2083535;28;1052;-59
2022/05/06 03:00:26;;;;;;;;;;;;;;;21.78;37.92;101757.84;2083656;28;737;-59
2022/05/06 03:01:28;;;;;;;;;;;;;;;21.77;38.25;101713.81;2083525;28;862;-59
2022/05/06 03:02:28;;;;;;;;;;;;;;;21.79;38.36;101712.88;2083679;28;807;-59
2022/05/06 03:03:30;;;;;;;;;;;;;;;21.79;38.41;101715.56;2083526;28;843;-60
2022/05/06 03:04:31;;;;;;;;;;;;;;;21.79;38.21;101712.88;2083514;28;823;-59
2022/05/06 03:05:32;;;;;;;;;;;;;;;21.79;37.87;101713.78;2083461;28;867;-60
2022/05/06 03:06:32;;;;;;;;;;;;;;;21.80;38.35;101703.84;2083410;28;1890;-59
2022/05/06 03:07:32;;;;;;;;;;;;;;;21.78;38.30;101712.00;2083452;28;1049;-59
2022/05/06 03:08:32;;;;;;;;;;;;;;;21.80;37.93;101799.16;2082951;28;784;-59
2022/05/06 03:09:33;;;;;;;;;;;;;;;21.80;38.48;101774.88;2083464;28;989;-59
2022/05/06 03:10:33;;;;;;;;;;;;;;;21.79;38.65;101767.72;2083445;28;1225;-59
2022/05/06 03:11:33;;;;;;;;;;;;;;;21.80;37.99;101755.09;2083425;28;823;-59
2022/05/06 03:12:34;;;;;;;;;;;;;;;21.79;38.24;101762.31;2083457;28;843;-59
2022/05/06 03:13:35;;;;;;;;;;;;;;;21.79;37.93;101769.50;2083462;28;851;-60
2022/05/06 03:14:35;;;;;;;;;;;;;;;21.79;37.99;101764.09;2083428;28;974;-59
2022/05/06 03:15:35;;;;;;;;;;;;;;;21.79;37.86;101770.41;2083442;28;973;-59
2022/05/06 03:16:35;;;;;;;;;;;;;;;21.80;37.85;101760.50;2083441;28;854;-59
2022/05/06 03:17:35;;;;;;;;;;;;;;;21.78;38.23;101768.63;2083399;28;985;-59
2022/05/06 03:18:36;;;;;;;;;;;;;;;21.78;38.33;101768.63;2083399;28;760;-60
2022/05/06 03:19:36;;;;;;;;;;;;;;;21.78;38.37;101768.63;2083380;28;790;-59
2022/05/06 03:20:38;;;;;;;;;;;;;;;21.79;37.93;101772.19;2083401;28;800;-59
2022/05/06 03:21:38;;;;;;;;;;;;;;;21.79;38.21;101767.72;2083365;28;835;-59
2022/05/06 03:22:40;;;;;;;;;;;;;;;21.79;38.19;101766.81;2083360;28;977;-59
2022/05/06 03:23:41;;;;;;;;;;;;;;;21.78;38.81;101765.94;2083468;28;715;-59
2022/05/06 03:24:41;;;;;;;;;;;;;;;21.78;38.12;101765.94;2083326;28;914;-59
2022/05/06 03:25:41;;;;;;;;;;;;;;;21.77;38.39;101759.66;2084021;28;794;-59
2022/05/06 03:26:42;;;;;;;;;;;;;;;21.77;38.52;101765.06;2083851;28;1961;-60
2022/05/06 03:28:01;;;;;;;;;;;;;;;21.77;38.06;101767.75;2083328;28;792;-60
2022/05/06 03:29:02;;;;;;;;;;;;;;;21.79;38.63;101764.09;2083501;28;854;-59
2022/05/06 03:30:02;;;;;;;;;;;;;;;21.78;37.99;101765.94;2083293;28;768;-59
2022/05/06 03:31:03;;;;;;;;;;;;;;;21.78;38.72;101768.63;2083291;28;993;-60
2022/05/06 03:32:03;;;;;;;;;;;;;;;21.79;37.96;101769.50;2083236;28;800;-59
2022/05/06 03:33:04;;;;;;;;;;;;;;;21.79;37.97;101770.41;2083278;28;997;-59
2022/05/06 03:34:05;;;;;;;;;;;;;;;21.79;38.75;101769.50;2083343;28;981;-59
2022/05/06 03:35:05;;;;;;;;;;;;;;;21.79;37.98;101772.19;2083291;28;799;-59
2022/05/06 03:36:05;;;;;;;;;;;;;;;21.79;38.25;101774.91;2083183;28;1123;-59
2022/05/06 03:37:05;;;;;;;;;;;;;;;21.79;38.23;101772.19;2083256;28;989;-59
2022/05/06 03:38:06;;;;;;;;;;;;;;;21.77;38.36;101773.16;2083264;28;617;-59
2022/05/06 03:39:06;;;;;;;;;;;;;;;21.77;38.68;101775.84;2083268;28;1040;-59
2022/05/06 03:40:07;;;;;;;;;;;;;;;21.76;38.75;101779.47;2083253;28;919;-59
2022/05/06 03:41:07;;;;;;;;;;;;;;;21.76;38.07;101773.19;2083175;28;1261;-59
2022/05/06 03:42:07;;;;;;;;;;;;;;;21.76;38.71;101774.06;2083200;28;895;-59
2022/05/06 03:43:07;;;;;;;;;;;;;;;21.77;37.85;101769.56;2083253;28;982;-59
2022/05/06 03:44:07;;;;;;;;;;;;;;;21.76;38.08;101776.78;2083203;28;780;-60
2022/05/06 03:45:09;;;;;;;;;;;;;;;21.77;38.43;101777.66;2083199;28;768;-59
2022/05/06 03:46:09;;;;;;;;;;;;;;;21.77;38.99;101770.47;2083177;28;1910;-59
2022/05/06 03:47:10;;;;;;;;;;;;;;;21.77;38.30;101772.25;2083261;28;775;-59
2022/05/06 03:48:10;;;;;;;;;;;;;;;21.77;38.02;101775.84;2083164;28;919;-60
2022/05/06 03:49:10;;;;;;;;;;;;;;;21.76;38.74;101768.69;2083127;28;974;-59
2022/05/06 03:51:29;;;;;;;;;;;;;;;21.76;38.07;101774.06;2083342;28;626;-59
2022/05/06 03:52:29;;;;;;;;;;;;;;;21.75;38.01;101769.59;2083332;28;834;-59
2022/05/06 03:53:29;;;;;;;;;;;;;;;21.76;38.17;101768.69;2083085;28;1021;-60
2022/05/06 03:54:29;;;;;;;;;;;;;;;21.76;38.15;101774.06;2083120;28;902;-59
2022/05/06 03:55:30;;;;;;;;;;;;;;;21.76;38.88;101768.69;2083100;28;978;-59
2022/05/06 03:56:30;;;;;;;;;;;;;;;21.77;38.33;101772.25;2083097;28;772;-59
2022/05/06 03:57:30;;;;;;;;;;;;;;;21.78;38.17;101771.34;2082397;28;962;-60
2022/05/06 03:58:30;;;;;;;;;;;;;;;21.77;38.54;101773.16;2082608;28;982;-59
2022/05/06 03:59:30;;;;;;;;;;;;;;;21.77;38.32;101774.94;2083177;28;985;-59
2022/05/06 04:00:31;;;;;;;;;;;;;;;21.77;38.57;101769.56;2084779;28;741;-60
2022/05/06 04:01:31;;;;;;;;;;;;;;;22.48;37.83;101780.41;2083187;28;863;-60
2022/05/06 04:02:34;;;;;;;;;;;;;;;23.27;35.33;101771.94;2083097;28;854;-60
2022/05/06 04:03:35;;;;;;;;;;;;;;;23.79;35.23;101770.28;2083089;28;859;-59
2022/05/06 04:04:35;;;;;;;;;;;;;;;24.15;34.42;101771.84;2083084;28;776;-58
2022/05/06 04:05:35;;;;;;;;;;;;;;;24.45;33.68;101778.97;2083064;28;907;-59
2022/05/06 04:06:35;;;;;;;;;;;;;;;24.71;33.36;101776.22;2083018;28;1886;-59
2022/05/06 04:07:35;;;;;;;;;;;;;;;24.99;32.55;101775.22;2083056;28;986;-59
2022/05/06 04:08:35;;;;;;;;;;;;;;;25.24;31.63;101773.38;2083039;28;768;-59
2022/05/06 04:09:36;;;;;;;;;;;;;;;25.44;31.94;101769.91;2083034;28;883;-58
2022/05/06 04:10:36;;;;;;;;;;;;;;;25.59;31.22;101773.88;2083025;28;796;-59
2022/05/06 04:11:36;;;;;;;;;;;;;;;25.74;30.96;101780.50;2083117;28;748;-59
2022/05/06 04:12:36;;;;;;;;;;;;;;;25.86;31.18;101776.38;2083023;28;986;-59
2022/05/06 04:13:36;;;;;;;;;;;;;;;25.96;30.65;101776.88;2082986;28;997;-59
2022/05/06 04:14:36;;;;;;;;;;;;;;;26.11;30.09;101778.97;2082288;28;852;-59
2022/05/06 04:15:38;;;;;;;;;;;;;;;26.19;30.40;101760.53;2082404;28;1040;-59
2022/05/06 04:16:38;;;;;;;;;;;;;;;26.41;30.18;101775.91;2083046;28;827;-59
2022/05/06 04:17:38;;;;;;;;;;;;;;;26.61;29.80;101775.03;2083097;28;811;-59
2022/05/06 04:18:38;;;;;;;;;;;;;;;26.75;29.01;101785.28;2082987;28;993;-59
2022/05/06 04:23:28;;;;;;;;;;;;;;;26.89;29.88;101775.66;2082822;28;699;-59
2022/05/06 04:23:37;;;;;;;;;;;;;;;27.27;28.85;101772.97;2083032;28;664;-60
2022/05/06 04:24:37;;;;;;;;;;;;;;;27.45;27.98;101775.75;2083142;28;799;-59
2022/05/06 04:25:38;;;;;;;;;;;;;;;27.55;28.10;101776.22;2082970;28;1005;-59
2022/05/06 04:26:38;;;;;;;;;;;;;;;27.49;27.82;101774.69;2082719;28;1955;-59
2022/05/06 04:27:38;;;;;;;;;;;;;;;27.58;28.02;101776.06;2082914;28;670;-60
2022/05/06 04:28:39;;;;;;;;;;;;;;;27.63;28.00;101774.91;2082937;28;806;-59
2022/05/06 04:29:39;;;;;;;;;;;;;;;27.76;27.68;101767.00;2083048;28;783;-59
2022/05/06 04:30:39;;;;;;;;;;;;;;;27.71;27.87;101773.63;2082911;28;847;-59
2022/05/06 04:31:39;;;;;;;;;;;;;;;27.74;27.31;101776.19;2082936;28;970;-60
2022/05/06 04:32:39;;;;;;;;;;;;;;;27.88;27.42;101779.13;2082928;28;784;-59
2022/05/06 04:33:40;;;;;;;;;;;;;;;27.92;27.19;101778.00;2082910;28;787;-59
2022/05/06 04:34:40;;;;;;;;;;;;;;;27.99;27.40;101772.25;2082914;28;913;-59
2022/05/06 04:35:40;;;;;;;;;;;;;;;28.06;27.32;101768.25;2082857;28;1009;-59
2022/05/06 04:36:42;;;;;;;;;;;;;;;28.12;26.93;101765.25;2083028;28;772;-60
2022/05/06 04:37:43;;;;;;;;;;;;;;;28.14;26.98;101771.50;2082848;28;1231;-60
2022/05/06 04:38:43;;;;;;;;;;;;;;;28.18;27.49;101767.69;2082897;28;865;-59
2022/05/06 04:39:43;;;;;;;;;;;;;;;28.26;26.77;101767.25;2083871;28;752;-60
2022/05/06 04:40:43;;;;;;;;;;;;;;;28.33;26.80;101765.97;2083601;28;973;-60
2022/05/06 04:41:45;;;;;;;;;;;;;;;28.30;26.83;101765.25;2082854;28;768;-59
2022/05/06 04:42:45;;;;;;;;;;;;;;;28.50;26.61;101758.78;2082874;28;819;-59
2022/05/06 04:43:45;;;;;;;;;;;;;;;28.50;26.46;101759.63;2082869;28;887;-59
2022/05/06 04:44:45;;;;;;;;;;;;;;;28.52;26.69;101767.75;2082845;28;1048;-60
2022/05/06 04:45:46;;;;;;;;;;;;;;;28.59;26.78;101763.72;2082810;28;998;-60
2022/05/06 04:46:46;;;;;;;;;;;;;;;28.60;26.19;101761.88;2082807;28;1910;-59
2022/05/06 04:47:46;;;;;;;;;;;;;;;28.67;26.13;101764.19;2082995;28;739;-59
2022/05/06 04:48:46;;;;;;;;;;;;;;;28.76;26.46;101762.84;2082858;28;864;-59
2022/05/06 04:49:47;;;;;;;;;;;;;;;28.78;26.46;101773.66;2082795;28;859;-60
2022/05/06 04:50:47;;;;;;;;;;;;;;;28.87;26.44;101767.72;2082943;28;974;-59
2022/05/06 04:51:47;;;;;;;;;;;;;;;28.86;26.05;101768.69;2082134;28;1013;-59
2022/05/06 04:52:48;;;;;;;;;;;;;;;28.85;25.86;101770.50;2082293;28;921;-59
2022/05/06 04:53:48;;;;;;;;;;;;;;;28.85;25.67;101759.59;2082171;28;1632;-59
2022/05/06 04:54:48;;;;;;;;;;;;;;;29.01;25.70;101766.94;2082227;28;914;-59
2022/05/06 04:55:49;;;;;;;;;;;;;;;29.04;25.45;101765.91;2082787;28;850;-59
2022/05/06 04:56:49;;;;;;;;;;;;;;;29.02;26.09;101770.56;2082797;28;848;-59
2022/05/06 04:57:49;;;;;;;;;;;;;;;29.03;25.72;101772.34;2082804;28;788;-60
2022/05/06 04:58:49;;;;;;;;;;;;;;;28.95;26.24;101765.44;2082761;28;981;-59
2022/05/06 04:59:49;;;;;;;;;;;;;;;28.90;26.20;101766.66;2082762;28;1010;-59
2022/05/06 05:00:50;;;;;;;;;;;;;;;28.89;25.82;101778.53;2082791;28;772;-59
2022/05/06 05:01:50;;;;;;;;;;;;;;;28.88;25.66;101783.09;2082804;28;803;-61
2022/05/06 05:02:50;;;;;;;;;;;;;;;29.06;25.71;101772.16;2082747;28;836;-60
2022/05/06 05:03:50;;;;;;;;;;;;;;;29.01;25.38;101777.84;2082757;28;1013;-59
2022/05/06 05:04:52;;;;;;;;;;;;;;;29.08;25.50;101776.56;2082809;28;985;-59
2022/05/06 05:05:53;;;;;;;;;;;;;;;29.08;26.40;101775.69;2082687;28;1955;-59
2022/05/06 05:06:56;;;;;;;;;;;;;;;29.14;26.02;101761.72;2082726;28;981;-60
2022/05/06 05:07:56;;;;;;;;;;;;;;;29.21;25.57;101771.28;2082751;28;689;-60
2022/05/06 05:08:56;;;;;;;;;;;;;;;29.14;25.70;101769.91;2082774;28;811;-60
2022/05/06 05:09:56;;;;;;;;;;;;;;;29.18;25.72;101770.59;2082818;28;852;-60
2022/05/06 05:11:02;;;;;;;;;;;;;;;29.26;25.66;101757.41;2082714;28;978;-60
2022/05/06 05:12:03;;;;;;;;;;;;;;;29.12;25.19;101767.25;2082756;28;820;-59
2022/05/06 05:13:03;;;;;;;;;;;;;;;29.09;25.54;101761.09;2082778;28;779;-59
2022/05/06 05:14:06;;;;;;;;;;;;;;;29.05;25.64;101767.69;2082779;28;753;-59
2022/05/06 05:15:07;;;;;;;;;;;;;;;29.10;25.81;101760.13;2082709;28;803;-60
2022/05/06 05:16:07;;;;;;;;;;;;;;;29.08;26.29;101762.91;2082666;28;1099;-60
2022/05/06 05:17:08;;;;;;;;;;;;;;;29.25;25.50;101756.50;2082710;28;918;-59
2022/05/06 05:18:09;;;;;;;;;;;;;;;29.12;25.42;101764.50;2082901;28;854;-59
2022/05/06 05:19:09;;;;;;;;;;;;;;;29.12;25.62;101759.06;2082825;28;811;-61
2022/05/06 05:20:10;;;;;;;;;;;;;;;29.28;25.56;101760.94;2083806;28;756;-60
2022/05/06 05:21:10;;;;;;;;;;;;;;;29.19;25.58;101766.91;2083565;28;874;-59
2022/05/06 05:22:11;;;;;;;;;;;;;;;29.18;25.26;101762.41;2082728;28;831;-59
2022/05/06 05:23:11;;;;;;;;;;;;;;;29.20;25.42;101753.16;2082661;28;859;-59
2022/05/06 05:24:11;;;;;;;;;;;;;;;29.18;25.50;101752.38;2082678;28;886;-60
2022/05/06 05:25:12;;;;;;;;;;;;;;;29.21;25.37;101754.06;2082650;28;965;-60
2022/05/06 05:26:12;;;;;;;;;;;;;;;29.24;25.39;101757.47;2082559;28;1894;-60
2022/05/06 05:27:15;;;;;;;;;;;;;;;29.26;25.44;101755.53;2082740;28;1041;-59
2022/05/06 05:28:15;;;;;;;;;;;;;;;29.19;25.80;101761.44;2082693;28;958;-60